createdAt,value
2017-08-11T00:02:17.033Z,5.40
2017-08-11T00:04:48.506Z,5.97
2017-08-11T00:07:24.115Z,5.90
2017-08-11T00:09:56.607Z,6.07
2017-08-11T00:12:27.922Z,6.33
2017-08-11T00:14:59.013Z,6.30
2017-08-11T00:17:30.856Z,6.70
2017-08-11T00:20:03.172Z,6.57
2017-08-11T00:22:34.539Z,18.13
2017-08-11T00:25:05.606Z,5.57
2017-08-11T00:27:36.647Z,6.13
2017-08-11T00:30:10.203Z,5.40
2017-08-11T00:32:41.246Z,5.27
2017-08-11T00:35:12.340Z,5.73
2017-08-11T00:37:43.386Z,6.00
2017-08-11T00:40:15.225Z,5.43
2017-08-11T00:42:46.389Z,5.20
2017-08-11T00:45:18.289Z,6.17
2017-08-11T00:47:49.881Z,5.50
2017-08-11T00:50:23.666Z,4.43
2017-08-11T00:53:57.225Z,4.90
2017-08-11T00:56:29.127Z,5.70
2017-08-11T00:59:00.934Z,5.30
2017-08-11T01:01:32.087Z,6.00
2017-08-11T01:04:05.335Z,6.17
2017-08-11T01:06:36.867Z,5.50
2017-08-11T01:09:07.955Z,6.00
2017-08-11T01:11:39.217Z,6.00
2017-08-11T01:14:11.360Z,6.00
2017-08-11T01:16:42.423Z,6.53
2017-08-11T01:19:13.492Z,5.80
2017-08-11T01:21:44.871Z,6.60
2017-08-11T01:24:16.001Z,6.10
2017-08-11T01:26:47.082Z,5.97
2017-08-11T01:30:22.505Z,6.07
2017-08-11T01:32:54.604Z,6.07
2017-08-11T01:35:26.801Z,6.13
2017-08-11T01:37:57.875Z,5.87
2017-08-11T01:40:29.275Z,6.10
2017-08-11T01:43:00.338Z,5.30
2017-08-11T01:45:32.184Z,6.57
2017-08-11T01:48:05.056Z,7.63
2017-08-11T01:50:36.144Z,8.90
2017-08-11T01:53:09.523Z,8.00
2017-08-11T01:55:40.715Z,7.70
2017-08-11T01:58:13.203Z,7.50
2017-08-11T02:00:44.332Z,7.30
2017-08-11T02:03:15.482Z,7.90
2017-08-11T02:05:47.061Z,8.50
2017-08-11T02:08:19.075Z,8.30
2017-08-11T02:10:50.161Z,8.30
2017-08-11T02:13:23.494Z,8.53
2017-08-11T02:15:54.553Z,8.50
2017-08-11T02:18:26.216Z,7.90
2017-08-11T02:20:57.512Z,8.03
2017-08-11T02:23:28.579Z,7.93
2017-08-11T02:26:00.042Z,8.13
2017-08-11T02:28:31.104Z,9.23
2017-08-11T02:31:02.925Z,8.77
2017-08-11T02:33:34.374Z,8.43
2017-08-11T02:36:06.094Z,8.30
2017-08-11T02:38:37.196Z,7.20
2017-08-11T02:41:08.635Z,7.93
2017-08-11T02:43:40.046Z,7.30
2017-08-11T02:46:11.233Z,7.67
2017-08-11T02:48:42.661Z,8.20
2017-08-11T02:51:13.682Z,8.67
2017-08-11T02:53:44.728Z,9.87
2017-08-11T02:56:16.515Z,9.50
2017-08-11T02:58:47.812Z,9.73
2017-08-11T03:01:20.304Z,9.47
2017-08-11T03:03:51.384Z,9.57
2017-08-11T03:06:22.481Z,10.07
2017-08-11T03:08:53.983Z,10.30
2017-08-11T03:12:28.720Z,7.90
2017-08-11T03:15:00.282Z,8.40
2017-08-11T03:17:31.319Z,7.30
2017-08-11T03:20:04.686Z,7.53
2017-08-11T03:22:37.074Z,8.20
2017-08-11T03:25:08.152Z,7.70
2017-08-11T03:27:39.209Z,7.40
2017-08-11T03:30:11.609Z,7.23
2017-08-11T03:32:42.640Z,6.60
2017-08-11T03:35:14.056Z,7.00
2017-08-11T03:37:45.486Z,7.23
2017-08-11T03:40:16.606Z,6.43
2017-08-11T03:42:47.688Z,6.30
2017-08-11T03:45:19.322Z,7.10
2017-08-11T03:47:50.390Z,6.60
2017-08-11T03:50:22.099Z,7.13
2017-08-11T03:52:53.130Z,6.67
2017-08-11T03:55:39.200Z,7.70
2017-08-11T03:58:10.919Z,7.20
2017-08-11T04:00:42.111Z,7.20
2017-08-11T04:03:13.441Z,7.67
2017-08-11T04:05:44.514Z,7.43
2017-08-11T04:08:15.674Z,8.30
2017-08-11T04:10:47.625Z,12.50
2017-08-11T04:13:19.092Z,8.33
2017-08-11T04:15:50.190Z,7.73
2017-08-11T04:18:23.509Z,8.20
2017-08-11T04:20:54.586Z,9.10
2017-08-11T04:23:26.889Z,9.07
2017-08-11T04:25:57.985Z,9.87
2017-08-11T04:28:29.287Z,9.80
2017-08-11T04:31:00.781Z,9.50
2017-08-11T04:33:31.843Z,9.87
2017-08-11T04:36:04.461Z,10.20
2017-08-11T04:38:35.873Z,9.30
2017-08-11T04:41:06.973Z,10.17
2017-08-11T04:43:38.586Z,9.80
2017-08-11T04:46:09.968Z,9.20
2017-08-11T04:48:41.063Z,10.20
2017-08-11T04:51:12.699Z,9.10
2017-08-11T04:53:43.783Z,9.17
2017-08-11T04:56:14.878Z,8.73
2017-08-11T04:58:46.460Z,9.57
2017-08-11T05:01:17.568Z,9.70
2017-08-11T05:03:48.639Z,9.20
2017-08-11T05:06:20.891Z,9.70
2017-08-11T05:08:52.507Z,9.87
2017-08-11T05:11:25.390Z,9.67
2017-08-11T05:13:56.894Z,10.20
2017-08-11T05:16:28.186Z,10.23
2017-08-11T05:19:02.282Z,11.27
2017-08-11T05:21:33.757Z,10.30
2017-08-11T05:24:05.750Z,10.33
2017-08-11T05:26:36.840Z,11.27
2017-08-11T05:29:07.938Z,11.20
2017-08-11T05:31:39.044Z,12.17
2017-08-11T05:34:10.576Z,13.23
2017-08-11T05:36:41.765Z,12.07
2017-08-11T05:39:13.127Z,13.63
2017-08-11T05:41:44.195Z,13.43
2017-08-11T05:44:15.288Z,12.20
2017-08-11T05:46:46.855Z,11.90
2017-08-11T05:49:17.939Z,13.40
2017-08-11T05:51:49.312Z,13.20
2017-08-11T05:54:22.315Z,13.00
2017-08-11T05:56:53.383Z,14.23
2017-08-11T05:59:26.056Z,13.43
2017-08-11T06:01:57.156Z,12.87
2017-08-11T06:04:28.487Z,12.20
2017-08-11T06:07:00.471Z,14.07
2017-08-11T06:09:31.534Z,13.60
2017-08-11T06:12:04.216Z,15.00
2017-08-11T06:14:36.603Z,15.20
2017-08-11T06:17:07.878Z,14.53
2017-08-11T06:19:39.040Z,15.83
2017-08-11T06:22:15.475Z,16.93
2017-08-11T06:24:48.457Z,15.87
2017-08-11T06:27:22.002Z,16.97
2017-08-11T06:29:54.119Z,15.33
2017-08-11T06:32:26.424Z,15.93
2017-08-11T06:34:59.125Z,16.23
2017-08-11T06:37:30.582Z,16.80
2017-08-11T06:40:03.370Z,17.10
2017-08-11T06:42:42.745Z,16.07
2017-08-11T06:45:14.564Z,17.10
2017-08-11T06:47:48.031Z,17.07
2017-08-11T06:50:19.429Z,17.30
2017-08-11T06:52:50.749Z,17.90
2017-08-11T06:55:23.562Z,18.77
2017-08-11T06:57:54.843Z,18.40
2017-08-11T07:00:26.197Z,17.93
2017-08-11T07:05:53.509Z,19.63
2017-08-11T07:08:27.324Z,22.90
2017-08-11T07:11:02.359Z,19.23
2017-08-11T07:13:33.675Z,19.60
2017-08-11T07:16:07.577Z,19.60
2017-08-11T07:18:38.716Z,20.77
2017-08-11T07:21:10.181Z,20.17
2017-08-11T07:23:41.673Z,21.87
2017-08-11T07:26:13.965Z,20.07
2017-08-11T07:28:45.161Z,19.10
2017-08-11T07:31:17.847Z,18.20
2017-08-11T07:33:49.157Z,19.63
2017-08-11T07:36:21.555Z,17.87
2017-08-11T07:38:53.288Z,18.63
2017-08-11T07:41:26.516Z,19.07
2017-08-11T07:43:57.902Z,17.40
2017-08-11T07:46:29.207Z,18.50
2017-08-11T07:49:01.236Z,17.87
2017-08-11T07:51:32.870Z,19.30
2017-08-11T07:54:06.024Z,18.80
2017-08-11T07:56:38.195Z,21.30
2017-08-11T07:59:09.521Z,21.07
2017-08-11T08:01:41.101Z,20.67
2017-08-11T08:04:18.567Z,19.27
2017-08-11T08:06:50.500Z,20.20
2017-08-11T08:09:22.422Z,22.93
2017-08-11T08:11:54.465Z,20.80
2017-08-11T08:14:27.884Z,21.27
2017-08-11T08:16:59.445Z,21.07
2017-08-11T08:19:30.779Z,20.47
2017-08-11T08:22:02.932Z,21.30
2017-08-11T08:24:34.571Z,20.90
2017-08-11T08:27:05.770Z,19.67
2017-08-11T08:29:37.059Z,20.90
2017-08-11T08:32:09.110Z,20.30
2017-08-11T08:34:40.898Z,21.50
2017-08-11T08:37:11.997Z,24.30
2017-08-11T08:39:43.137Z,24.53
2017-08-11T08:42:16.544Z,27.87
2017-08-11T08:44:48.753Z,31.57
2017-08-11T08:47:20.668Z,31.50
2017-08-11T08:49:51.893Z,33.30
2017-08-11T08:52:26.197Z,33.87
2017-08-11T08:54:57.328Z,30.23
2017-08-11T08:57:28.462Z,29.73
2017-08-11T09:00:00.002Z,29.77
2017-08-11T09:02:31.860Z,27.70
2017-08-11T09:05:09.315Z,32.30
2017-08-11T09:07:41.463Z,27.67
2017-08-11T09:10:13.905Z,29.90
2017-08-11T09:14:14.686Z,30.23
2017-08-11T09:16:46.315Z,27.57
2017-08-11T09:19:17.928Z,29.90
2017-08-11T09:21:49.443Z,29.80
2017-08-11T09:24:30.151Z,28.43
2017-08-11T09:31:17.450Z,29.80
2017-08-11T09:36:29.955Z,24.97
2017-08-11T09:39:01.778Z,50.87
2017-08-11T09:41:45.191Z,32.00
2017-08-11T09:44:18.124Z,29.63
2017-08-11T09:46:49.599Z,28.57
2017-08-11T09:49:21.616Z,29.87
2017-08-11T09:51:52.816Z,30.77
2017-08-11T09:54:24.117Z,31.87
2017-08-11T09:56:55.466Z,30.47
2017-08-11T09:59:26.851Z,31.20
2017-08-11T10:01:58.471Z,29.80
2017-08-11T10:04:29.628Z,28.90
2017-08-11T10:07:00.986Z,32.70
2017-08-11T10:09:32.518Z,32.97
2017-08-11T10:12:04.803Z,34.63
2017-08-11T10:14:36.795Z,32.93
2017-08-11T10:17:08.348Z,29.57
2017-08-11T10:19:39.445Z,32.20
2017-08-11T10:22:10.990Z,32.07
2017-08-11T10:24:42.092Z,32.50
2017-08-11T10:27:13.562Z,34.27
2017-08-11T10:29:45.027Z,31.87
2017-08-11T10:32:17.700Z,31.20
2017-08-11T10:34:49.288Z,33.20
2017-08-11T10:37:21.081Z,32.70
2017-08-11T10:39:52.343Z,31.00
2017-08-11T10:42:23.543Z,32.90
2017-08-11T10:44:54.675Z,31.67
2017-08-11T10:47:26.161Z,31.70
2017-08-11T10:49:57.217Z,32.30
2017-08-11T10:52:28.869Z,30.67
2017-08-11T10:54:59.922Z,30.30
2017-08-11T10:57:31.041Z,29.10
2017-08-11T11:00:03.703Z,28.43
2017-08-11T11:02:34.742Z,29.30
2017-08-11T11:05:05.764Z,29.70
2017-08-11T11:07:37.093Z,28.63
2017-08-11T11:10:08.140Z,27.87
2017-08-11T11:12:39.385Z,27.90
2017-08-11T11:15:13.163Z,27.83
2017-08-11T11:17:44.187Z,25.00
2017-08-11T11:20:17.032Z,26.77
2017-08-11T11:22:48.715Z,24.50
2017-08-11T11:25:19.841Z,24.17
2017-08-11T11:27:50.854Z,22.37
2017-08-11T11:30:22.343Z,21.10
2017-08-11T11:32:53.376Z,22.53
2017-08-11T11:35:24.411Z,20.33
2017-08-11T11:37:56.754Z,19.70
2017-08-11T11:40:27.801Z,17.30
2017-08-11T11:42:58.998Z,17.53
2017-08-11T11:45:30.331Z,17.00
2017-08-11T11:48:01.573Z,14.17
2017-08-11T11:50:32.889Z,13.90
2017-08-11T11:53:04.578Z,15.70
2017-08-11T11:55:35.943Z,12.60
2017-08-11T11:58:07.039Z,11.77
2017-08-11T12:00:38.120Z,10.70
2017-08-11T12:05:49.756Z,10.37
2017-08-11T12:08:21.081Z,9.17
2017-08-11T12:10:52.140Z,9.00
2017-08-11T12:13:23.174Z,9.80
2017-08-11T12:15:54.458Z,12.47
2017-08-11T12:18:25.520Z,41.87
2017-08-11T12:20:56.945Z,21.70
2017-08-11T12:23:28.019Z,18.60
2017-08-11T12:25:59.064Z,19.77
2017-08-11T12:28:30.842Z,21.57
2017-08-11T12:31:03.275Z,23.63
2017-08-11T12:33:34.373Z,18.87
2017-08-11T12:36:06.790Z,12.17
2017-08-11T12:38:37.861Z,8.13
2017-08-11T12:41:09.187Z,6.23
2017-08-11T12:43:40.304Z,7.10
2017-08-11T12:46:11.453Z,7.37
2017-08-11T12:48:42.842Z,8.03
2017-08-11T12:51:13.947Z,11.07
2017-08-11T12:53:44.991Z,8.00
2017-08-11T12:56:19.960Z,7.33
2017-08-11T13:04:57.437Z,8.40
2017-08-11T13:07:36.925Z,8.97
2017-08-11T13:10:32.544Z,6.80
2017-08-11T13:13:22.957Z,7.40
2017-08-11T13:16:11.232Z,7.17
2017-08-11T13:23:39.648Z,5.43
2017-08-11T13:28:39.591Z,6.40
2017-08-11T13:35:39.459Z,7.70
2017-08-11T13:38:20.702Z,9.40
2017-08-11T13:40:52.566Z,10.83
2017-08-11T13:43:23.676Z,6.73
2017-08-11T13:45:56.763Z,6.80
2017-08-11T13:48:27.839Z,7.13
2017-08-11T13:50:59.751Z,7.10
2017-08-11T13:53:30.892Z,7.13
2017-08-11T13:56:03.429Z,7.97
2017-08-11T13:58:34.727Z,12.77
2017-08-11T14:04:06.926Z,8.43
2017-08-11T14:06:41.258Z,9.70
2017-08-11T14:09:15.014Z,8.50
2017-08-11T14:11:48.210Z,9.70
2017-08-11T14:14:19.910Z,9.50
2017-08-11T14:16:51.181Z,10.57
2017-08-11T14:19:23.630Z,10.90
2017-08-11T14:21:56.225Z,10.63
2017-08-11T14:24:31.528Z,10.00
2017-08-11T14:27:03.257Z,10.40
2017-08-11T14:29:34.382Z,11.47
2017-08-11T14:32:07.537Z,11.47
2017-08-11T14:34:41.444Z,11.40
2017-08-11T14:37:13.811Z,11.17
2017-08-11T14:39:47.900Z,12.03
2017-08-11T14:42:19.634Z,11.87
2017-08-11T14:44:54.456Z,13.53
2017-08-11T14:47:28.732Z,14.20
2017-08-11T14:50:15.188Z,13.10
2017-08-11T14:52:48.893Z,11.73
2017-08-11T14:55:20.370Z,12.53
2017-08-11T14:57:53.291Z,12.80
2017-08-11T15:03:21.716Z,12.13
2017-08-11T15:05:52.896Z,14.57
2017-08-11T15:08:44.167Z,13.93
2017-08-11T15:11:22.545Z,12.77
2017-08-11T15:13:53.813Z,13.77
2017-08-11T15:16:25.180Z,14.90
2017-08-11T15:18:56.241Z,14.70
2017-08-11T15:21:27.304Z,15.33
2017-08-11T15:23:58.664Z,14.93
2017-08-11T15:26:29.720Z,16.80
2017-08-11T15:29:01.120Z,16.50
2017-08-11T15:31:32.580Z,17.00
2017-08-11T15:34:04.515Z,16.80
2017-08-11T15:36:35.580Z,18.30
2017-08-11T15:39:06.682Z,18.13
2017-08-11T15:41:38.013Z,17.93
2017-08-11T15:44:09.239Z,15.47
2017-08-11T15:46:40.337Z,16.47
2017-08-11T15:49:11.431Z,14.47
2017-08-11T15:51:42.476Z,15.80
2017-08-11T15:54:13.955Z,13.73
2017-08-11T15:56:45.361Z,15.17
2017-08-11T16:05:26.743Z,14.97
2017-08-11T16:08:01.165Z,13.67
2017-08-11T16:10:33.935Z,14.33
2017-08-11T16:13:06.478Z,15.63
2017-08-11T16:15:38.843Z,12.30
2017-08-11T16:18:10.497Z,13.43
2017-08-11T16:20:42.928Z,12.37
2017-08-11T16:23:14.086Z,11.60
2017-08-11T16:25:47.084Z,14.17
2017-08-11T16:28:19.824Z,11.27
2017-08-11T16:30:51.078Z,11.60
2017-08-11T16:33:22.205Z,14.27
2017-08-11T16:35:55.210Z,13.60
2017-08-11T16:38:26.731Z,13.33
2017-08-11T16:40:58.921Z,13.70
2017-08-11T16:43:31.701Z,29.20
2017-08-11T16:46:06.786Z,14.50
2017-08-11T16:48:38.316Z,13.80
2017-08-11T16:53:40.165Z,14.33
2017-08-11T16:56:12.244Z,15.20
2017-08-11T17:16:13.920Z,20.63
2017-08-11T17:18:45.444Z,21.50
2017-08-11T17:21:20.095Z,21.90
2017-08-11T17:23:56.664Z,22.73
2017-08-11T17:26:27.819Z,22.40
2017-08-11T17:28:59.027Z,23.60
2017-08-11T17:31:30.265Z,22.77
2017-08-11T17:35:15.204Z,23.30
2017-08-11T17:37:46.295Z,24.97
2017-08-11T17:40:26.111Z,32.73
2017-08-11T17:42:58.131Z,26.70
2017-08-11T17:45:29.880Z,27.77
2017-08-11T17:48:03.458Z,29.17
2017-08-11T17:50:35.707Z,28.00
2017-08-11T17:53:36.045Z,29.60
2017-08-11T17:56:18.274Z,26.80
2017-08-11T17:58:49.790Z,28.40
2017-08-11T18:04:30.611Z,28.53
2017-08-11T18:07:04.272Z,26.93
2017-08-11T18:09:38.550Z,24.83
2017-08-11T18:12:11.580Z,27.00
2017-08-11T18:14:53.382Z,27.37
2017-08-11T18:17:35.773Z,26.57
2017-08-11T18:25:58.398Z,26.17
2017-08-11T18:28:30.228Z,26.90
2017-08-11T18:31:03.216Z,26.87
2017-08-11T18:33:38.747Z,28.80
2017-08-11T18:36:13.819Z,30.13
2017-08-11T18:38:49.669Z,29.77
2017-08-11T18:41:22.689Z,27.77
2017-08-11T18:43:54.572Z,28.90
2017-08-11T18:46:27.547Z,29.40
2017-08-11T18:49:01.608Z,26.87
2017-08-11T18:51:34.335Z,27.43
2017-08-11T18:54:07.556Z,28.50
2017-08-11T18:56:41.266Z,28.80
2017-08-11T18:59:12.775Z,29.10
2017-08-11T19:01:47.189Z,29.13
2017-08-11T19:04:19.860Z,28.10
2017-08-11T19:06:51.517Z,28.20
2017-08-11T19:09:23.086Z,28.20
2017-08-11T19:11:54.488Z,26.23
2017-08-11T19:14:31.905Z,27.80
2017-08-11T19:17:03.422Z,26.70
2017-08-11T19:19:37.420Z,28.37
2017-08-11T19:22:10.454Z,25.97
2017-08-11T19:24:43.843Z,25.63
2017-08-11T19:27:17.296Z,27.90
2017-08-11T19:29:50.142Z,29.13
2017-08-11T19:32:21.746Z,28.13
2017-08-11T19:34:54.008Z,29.30
2017-08-11T19:37:27.430Z,30.07
2017-08-11T19:39:58.918Z,27.70
2017-08-11T19:42:30.953Z,26.13
2017-08-11T19:45:04.622Z,28.17
2017-08-11T19:47:37.622Z,27.40
2017-08-11T19:50:13.539Z,26.67
2017-08-11T19:52:47.740Z,26.83
2017-08-11T19:55:22.182Z,27.33
2017-08-11T19:57:56.866Z,26.70
2017-08-11T20:00:31.752Z,26.27
2017-08-11T20:03:05.496Z,27.03
2017-08-11T20:05:40.558Z,23.30
2017-08-11T20:08:20.158Z,22.67
2017-08-11T20:10:53.330Z,25.33
2017-08-11T20:13:25.998Z,23.63
2017-08-11T20:15:58.342Z,22.87
2017-08-11T20:18:32.199Z,24.70
2017-08-11T20:21:06.583Z,22.37
2017-08-11T20:23:42.779Z,24.00
2017-08-11T20:26:17.427Z,24.77
2017-08-11T20:28:51.758Z,24.20
2017-08-11T20:31:25.760Z,26.33
2017-08-11T20:34:10.612Z,26.10
2017-08-11T20:36:49.818Z,25.23
2017-08-11T20:39:23.307Z,26.80
2017-08-11T20:41:55.270Z,26.17
2017-08-11T20:44:27.377Z,27.73
2017-08-11T20:47:03.169Z,32.47
2017-08-11T20:49:35.581Z,30.30
2017-08-11T20:52:12.963Z,24.50
2017-08-11T20:54:46.793Z,24.20
2017-08-11T20:57:18.348Z,21.50
2017-08-11T20:59:49.936Z,21.40
2017-08-11T21:02:21.551Z,22.47
2017-08-11T21:04:54.980Z,20.83
2017-08-11T21:07:28.023Z,22.17
2017-08-11T21:10:00.402Z,22.83
2017-08-11T21:12:32.151Z,23.00
2017-08-11T21:15:06.590Z,21.93
2017-08-11T21:17:38.834Z,22.87
2017-08-11T21:20:12.563Z,21.07
2017-08-11T21:22:46.037Z,22.40
2017-08-11T21:25:17.885Z,21.80
2017-08-11T21:27:49.152Z,21.20
2017-08-11T21:33:15.952Z,22.37
2017-08-11T21:45:40.752Z,20.77
2017-08-11T21:48:23.976Z,24.27
2017-08-11T21:50:59.591Z,22.20
2017-08-11T21:53:37.527Z,21.80
2017-08-11T21:56:21.557Z,33.53
2017-08-11T21:59:02.503Z,23.43
2017-08-11T22:01:34.235Z,24.50
2017-08-11T22:04:22.734Z,23.53
2017-08-11T22:07:32.786Z,24.03
2017-08-11T22:10:13.765Z,22.67
2017-08-11T22:12:46.949Z,23.63
2017-08-11T22:15:21.879Z,22.80
2017-08-11T22:17:56.521Z,21.10
2017-08-11T22:20:33.694Z,20.57
2017-08-11T22:23:08.501Z,19.93
2017-08-11T22:25:41.080Z,22.27
2017-08-11T22:28:21.089Z,20.73
2017-08-11T22:30:53.848Z,21.40
2017-08-11T22:33:27.910Z,22.13
2017-08-11T22:36:16.056Z,20.50
2017-08-11T22:38:48.317Z,20.87
2017-08-11T22:41:20.772Z,22.43
2017-08-11T22:43:53.330Z,19.63
2017-08-11T22:46:24.999Z,18.40
2017-08-11T22:48:56.779Z,20.27
2017-08-11T22:51:29.114Z,21.03
2017-08-11T22:54:05.114Z,20.40
2017-08-11T22:56:37.176Z,21.30
2017-08-11T22:59:08.682Z,21.53
2017-08-11T23:01:43.252Z,20.90
2017-08-11T23:04:23.822Z,21.10
2017-08-11T23:06:55.966Z,19.40
2017-08-11T23:09:28.381Z,22.00
2017-08-11T23:12:02.064Z,20.77
2017-08-11T23:14:33.809Z,20.30
2017-08-11T23:17:05.581Z,20.77
2017-08-11T23:19:39.366Z,18.07
2017-08-11T23:22:12.837Z,20.20
2017-08-11T23:24:45.689Z,17.73
2017-08-11T23:27:16.972Z,17.60
2017-08-11T23:29:48.951Z,17.73
2017-08-11T23:32:21.709Z,17.83
2017-08-11T23:34:54.307Z,19.73
2017-08-11T23:37:25.847Z,17.43
2017-08-11T23:39:57.047Z,16.10
2017-08-11T23:42:28.662Z,17.10
2017-08-11T23:45:01.372Z,17.27
2017-08-11T23:47:33.313Z,17.17
2017-08-11T23:50:05.790Z,17.17
2017-08-11T23:52:37.211Z,17.00
2017-08-11T23:55:10.743Z,17.80
2017-08-11T23:57:43.795Z,84.80
